Time;durP1;ratioP1;P1;durP2;ratioP2;P2;SDS_P1;SDS_P2;PMS_P1;PMS_P2;Temp;Humidity;BMP_temperature;BMP_pressure;BME280_temperature;BME280_humidity;BME280_pressure;Samples;Min_cycle;Max_cycle;Signal;HPM_P1;HPM_P2
2022/12/24 00:01:05;;;;;;;38.65;6.35;;;;;;;15.03;75.93;100431.69;5011549;28;20386;-70
2022/12/24 00:03:31;;;;;;;40.38;7.47;;;;;;;15.07;74.70;100429.28;5009665;28;20038;-68
2022/12/24 00:05:57;;;;;;;41.33;5.68;;;;;;;14.49;76.37;100427.59;5006951;28;20108;-68
2022/12/24 00:08:22;;;;;;;36.03;5.53;;;;;;;14.35;75.32;100432.66;5003278;28;20072;-68
2022/12/24 00:10:50;;;;;;;37.13;6.97;;;;;;;14.75;75.48;100441.03;5004609;28;20042;-69
2022/12/24 00:13:15;;;;;;;33.85;5.30;;;;;;;14.59;75.47;100433.06;5008308;28;20037;-69
2022/12/24 00:15:40;;;;;;;55.70;7.35;;;;;;;14.52;75.39;100436.03;5009531;28;20087;-69
2022/12/24 00:18:06;;;;;;;33.28;5.40;;;;;;;14.47;76.12;100441.38;5008186;28;20038;-69
2022/12/24 00:20:31;;;;;;;48.08;5.85;;;;;;;14.64;75.00;100447.44;5003194;28;20022;-70
2022/12/24 00:22:56;;;;;;;38.83;7.30;;;;;;;14.40;75.26;100453.50;5019971;28;20129;-68
2022/12/24 00:25:22;;;;;;;46.63;6.03;;;;;;;14.72;73.61;100463.19;5005752;28;20393;-68
2022/12/24 00:27:47;;;;;;;57.45;6.60;;;;;;;14.75;74.58;100468.06;5004725;28;20061;-67
2022/12/24 00:30:12;;;;;;;56.60;7.07;;;;;;;15.58;71.17;100466.31;5004687;28;20342;-68
2022/12/24 00:32:38;;;;;;;26.63;3.65;;;;;;;14.40;75.26;100467.03;5003830;28;20382;-68
2022/12/24 00:35:03;;;;;;;43.40;5.82;;;;;;;14.78;74.11;100467.53;5003294;28;20120;-69
2022/12/24 00:37:29;;;;;;;35.72;5.20;;;;;;;14.67;74.29;100473.16;5004093;28;20613;-69
2022/12/24 00:39:54;;;;;;;36.20;6.18;;;;;;;15.07;73.06;100478.00;5005686;28;20213;-68
2022/12/24 00:42:20;;;;;;;35.05;5.70;;;;;;;14.32;75.21;100475.59;5003248;28;20469;-68
2022/12/24 00:44:45;;;;;;;41.95;6.50;;;;;;;14.23;75.86;100485.25;5003460;28;20129;-67
2022/12/24 00:47:10;;;;;;;45.88;5.38;;;;;;;14.06;76.68;100483.47;5005068;28;20117;-68
2022/12/24 00:49:36;;;;;;;53.78;6.53;;;;;;;14.74;75.24;100485.38;5005453;28;20118;-67
2022/12/24 00:52:02;;;;;;;51.00;7.20;;;;;;;14.29;75.75;100487.75;5002756;28;20034;-67
2022/12/24 00:54:27;;;;;;;63.03;8.23;;;;;;;14.40;75.32;100492.19;5004233;28;20040;-68
2022/12/24 00:56:53;;;;;;;34.67;4.80;;;;;;;14.13;75.97;100499.47;5004705;28;20026;-67
2022/12/24 00:59:18;;;;;;;29.27;5.38;;;;;;;14.42;74.71;100494.59;5005027;28;20407;-69
2022/12/24 01:01:43;;;;;;;46.35;6.85;;;;;;;14.71;72.75;100509.44;4987131;28;20128;-68
2022/12/24 01:06:57;;;;;;;41.30;4.97;;;;;;;14.29;74.81;100506.66;4968202;28;20051;-69
2022/12/24 01:09:22;;;;;;;18.27;3.75;;;;;;;13.94;74.62;100509.00;4968740;28;20122;-68
2022/12/24 01:11:47;;;;;;;36.40;6.25;;;;;;;14.67;72.52;100511.84;4967901;28;20061;-67
2022/12/24 01:14:13;;;;;;;41.42;5.90;;;;;;;14.76;71.95;100525.69;4966170;28;20121;-67
2022/12/24 01:16:38;;;;;;;40.45;6.78;;;;;;;14.56;72.34;100520.13;4968937;28;20094;-68
2022/12/24 01:19:04;;;;;;;41.78;6.03;;;;;;;14.19;73.80;100543.56;4968608;28;20035;-68
2022/12/24 01:21:29;;;;;;;41.95;6.07;;;;;;;14.25;73.31;100540.66;4968836;28;20095;-69
2022/12/24 01:23:54;;;;;;;44.03;7.07;;;;;;;14.61;72.33;100547.22;4969449;28;20030;-69
2022/12/24 01:26:20;;;;;;;46.88;7.57;;;;;;;14.59;72.07;100555.59;4968590;28;20042;-68
2022/12/24 01:28:45;;;;;;;51.78;7.22;;;;;;;14.70;71.62;100570.81;4969043;28;20034;-70
2022/12/24 01:31:13;;;;;;;56.22;6.72;;;;;;;14.80;71.07;100562.78;4968668;28;20424;-67
2022/12/24 01:33:38;;;;;;;44.90;6.57;;;;;;;15.09;70.42;100565.97;4968748;28;20406;-69
2022/12/24 01:36:04;;;;;;;36.03;5.40;;;;;;;14.84;70.12;100571.19;4969001;28;20122;-67
2022/12/24 01:38:29;;;;;;;43.10;7.05;;;;;;;14.74;71.71;100580.03;4969144;28;20034;-67
2022/12/24 01:43:39;;;;;;;41.97;5.97;;;;;;;14.42;72.67;100589.22;4974825;28;20057;-68
2022/12/24 01:46:13;;;;;;;58.35;8.77;;;;;;;14.72;71.24;100594.91;5002433;28;20109;-67
2022/12/24 01:48:42;;;;;;;39.20;6.78;;;;;;;15.18;69.44;100596.03;5010308;28;20034;-67
2022/12/24 01:51:26;;;;;;;35.33;5.13;;;;;;;14.10;72.67;100603.47;5010377;28;20456;-67
2022/12/24 01:54:02;;;;;;;37.47;4.97;;;;;;;14.72;70.58;100611.94;5011096;28;20079;-67
2022/12/24 01:56:31;;;;;;;37.03;5.57;;;;;;;14.84;70.21;100611.75;5010807;28;20052;-69
2022/12/24 01:59:01;;;;;;;36.47;6.22;;;;;;;14.41;71.51;100611.91;5011029;28;20120;-67
2022/12/24 02:01:27;;;;;;;24.13;4.20;;;;;;;14.78;70.72;100613.63;5010533;28;20046;-69
2022/12/24 02:03:52;;;;;;;38.83;5.57;;;;;;;14.64;71.04;100606.22;5010210;28;20092;-67
2022/12/24 02:06:19;;;;;;;44.53;6.07;;;;;;;14.49;71.14;100622.28;5010555;28;20045;-67
2022/12/24 02:08:45;;;;;;;43.97;5.63;;;;;;;14.57;70.90;100622.63;5010811;28;20042;-69
2022/12/24 02:11:17;;;;;;;54.83;5.30;;;;;;;14.68;71.42;100621.63;5010507;28;20447;-68
2022/12/24 02:13:46;;;;;;;39.35;6.10;;;;;;;14.71;71.29;100626.56;5010545;28;20045;-68
2022/12/24 02:16:44;;;;;;;42.40;5.88;;;;;;;14.24;72.04;100632.81;5010726;28;20474;-68
2022/12/24 02:19:25;;;;;;;47.65;7.05;;;;;;;14.93;69.71;100629.16;5010355;28;20088;-67
2022/12/24 02:21:58;;;;;;;35.08;6.05;;;;;;;14.43;71.59;100626.81;5010343;28;20462;-68
2022/12/24 02:24:51;;;;;;;42.03;5.40;;;;;;;15.27;68.93;100638.59;5010215;28;20042;-70
2022/12/24 02:27:32;;;;;;;41.03;5.95;;;;;;;14.98;70.98;100637.31;5010262;28;20406;-67
2022/12/24 02:30:15;;;;;;;42.20;6.90;;;;;;;15.25;69.40;100639.97;5010270;28;20026;-68
2022/12/24 02:33:03;;;;;;;44.30;6.50;;;;;;;14.35;71.87;100645.41;5009363;28;20025;-67
2022/12/24 02:35:42;;;;;;;54.15;6.70;;;;;;;14.98;69.03;100650.06;4992751;28;20049;-68
2022/12/24 02:38:13;;;;;;;48.80;6.60;;;;;;;14.66;71.02;100658.94;5013272;28;20057;-68
2022/12/24 02:40:51;;;;;;;51.75;8.60;;;;;;;15.01;69.10;100663.88;5014031;28;20082;-68
2022/12/24 02:43:22;;;;;;;35.85;5.60;;;;;;;14.02;72.05;100649.03;5013833;28;20044;-69
2022/12/24 02:45:53;;;;;;;41.67;7.05;;;;;;;14.33;72.11;100667.25;5013770;28;20033;-68
2022/12/24 02:48:19;;;;;;;42.88;6.15;;;;;;;14.41;71.51;100665.97;5013565;28;20117;-68
2022/12/24 02:51:03;;;;;;;60.25;7.95;;;;;;;14.94;68.84;100674.91;5014491;28;20034;-69
2022/12/24 02:53:31;;;;;;;52.53;9.55;;;;;;;15.01;69.56;100679.28;5013856;28;20053;-68
2022/12/24 02:56:21;;;;;;;30.58;6.40;;;;;;;15.10;69.49;100680.44;5013899;28;20034;-68
2022/12/24 02:59:08;;;;;;;44.58;7.22;;;;;;;14.46;71.43;100682.28;5013481;28;20091;-68
2022/12/24 03:01:49;;;;;;;39.03;5.05;;;;;;;14.34;71.15;100679.72;5013334;28;20383;-68
2022/12/24 03:04:39;;;;;;;37.70;7.43;;;;;;;14.69;70.40;100693.63;4998804;28;20125;-69
2022/12/24 03:07:13;;;;;;;47.35;6.40;;;;;;;14.22;72.41;100689.81;5013457;28;20081;-67
2022/12/24 03:09:52;;;;;;;45.15;6.43;;;;;;;14.40;71.37;100710.31;5013511;28;20505;-67
2022/12/24 03:12:26;;;;;;;42.88;6.38;;;;;;;14.93;69.76;100716.56;5013719;28;20052;-67
2022/12/24 03:14:51;;;;;;;45.55;7.03;;;;;;;14.35;71.97;100715.69;5014024;28;20108;-67
2022/12/24 03:17:18;;;;;;;37.78;5.45;;;;;;;14.48;70.60;100713.41;5013176;28;20423;-67
2022/12/24 03:19:45;;;;;;;34.33;5.85;;;;;;;14.57;70.79;100728.09;5013039;28;20034;-69
2022/12/24 03:22:12;;;;;;;33.80;6.57;;;;;;;14.36;70.78;100725.41;5013364;28;20038;-68
2022/12/24 03:24:38;;;;;;;37.72;8.40;;;;;;;13.89;73.28;100734.00;5012977;28;20069;-66
2022/12/24 03:27:07;;;;;;;42.08;5.55;;;;;;;14.07;71.96;100736.38;5012979;28;20060;-68
2022/12/24 03:29:32;;;;;;;46.72;6.63;;;;;;;14.11;72.39;100750.22;5013670;28;20025;-68
2022/12/24 03:32:01;;;;;;;44.60;6.78;;;;;;;14.59;70.76;100731.38;5012878;28;20445;-69
2022/12/24 03:34:26;;;;;;;50.30;6.30;;;;;;;14.29;70.97;100732.91;5012907;28;20046;-67
2022/12/24 03:36:52;;;;;;;40.33;5.70;;;;;;;14.35;71.01;100732.69;5013031;28;20569;-67
2022/12/24 03:39:17;;;;;;;44.72;7.00;;;;;;;14.34;71.36;100746.47;5012793;28;20034;-69
2022/12/24 03:41:43;;;;;;;51.22;6.90;;;;;;;14.59;70.86;100734.06;5013336;28;20034;-68
2022/12/24 03:44:08;;;;;;;53.47;7.43;;;;;;;14.72;69.52;100739.06;5012892;28;20065;-66
2022/12/24 03:46:34;;;;;;;38.33;6.15;;;;;;;14.08;71.78;100748.84;5012845;28;20037;-68
2022/12/24 03:48:59;;;;;;;52.88;8.73;;;;;;;15.06;69.08;100746.97;4991200;28;20093;-68
2022/12/24 03:51:25;;;;;;;58.70;8.40;;;;;;;14.84;68.83;100749.75;5006390;28;20041;-66
2022/12/24 03:53:56;;;;;;;47.05;7.72;;;;;;;14.77;68.94;100747.25;5012961;28;20036;-67
2022/12/24 03:56:22;;;;;;;43.97;6.70;;;;;;;15.16;67.81;100747.06;5011122;28;20472;-67
2022/12/24 03:58:47;;;;;;;51.05;9.20;;;;;;;14.80;68.57;100754.06;5012646;28;20046;-67
2022/12/24 04:01:13;;;;;;;48.63;7.75;;;;;;;14.71;67.60;100744.75;5012113;28;20042;-67
2022/12/24 04:03:39;;;;;;;46.30;7.40;;;;;;;14.42;69.59;100749.56;5011957;28;20037;-68
2022/12/24 04:06:10;;;;;;;39.00;6.05;;;;;;;14.12;70.61;100749.16;5012300;28;20029;-66
2022/12/24 04:08:36;;;;;;;48.67;6.05;;;;;;;14.16;70.77;100752.16;5012925;28;20109;-67
2022/12/24 04:11:07;;;;;;;44.63;8.05;;;;;;;14.89;67.91;100755.22;5012219;28;20046;-67
2022/12/24 04:13:32;;;;;;;42.42;6.63;;;;;;;15.27;66.38;100760.44;5012246;28;20466;-67
2022/12/24 04:16:09;;;;;;;49.65;7.80;;;;;;;14.80;68.42;100754.06;5012084;28;20093;-67
2022/12/24 04:18:35;;;;;;;51.25;7.05;;;;;;;14.70;68.48;100765.56;5012034;28;20022;-69
2022/12/24 04:21:01;;;;;;;46.80;5.97;;;;;;;14.14;70.50;100768.63;5011940;28;20057;-67
2022/12/24 04:23:30;;;;;;;55.92;7.10;;;;;;;14.48;70.27;100772.91;5012293;28;20034;-68
2022/12/24 04:25:57;;;;;;;29.73;5.80;;;;;;;14.20;70.75;100774.91;5011889;28;20034;-68
2022/12/24 04:28:22;;;;;;;44.47;7.95;;;;;;;14.19;71.03;100778.69;5012213;28;20034;-67
2022/12/24 04:30:48;;;;;;;40.20;5.30;;;;;;;14.82;68.54;100773.53;5012043;28;20052;-68
2022/12/24 04:33:13;;;;;;;47.78;8.23;;;;;;;14.52;69.61;100774.03;5011754;28;20080;-68
2022/12/24 04:35:40;;;;;;;48.22;7.40;;;;;;;14.33;70.56;100771.91;5011762;28;20029;-68
2022/12/24 04:38:06;;;;;;;40.65;6.07;;;;;;;14.59;69.60;100776.53;5011861;28;20030;-68
2022/12/24 04:40:31;;;;;;;49.42;7.25;;;;;;;14.18;70.70;100775.16;5011677;28;20073;-67
2022/12/24 04:42:57;;;;;;;42.00;6.13;;;;;;;13.96;71.29;100787.81;5011544;28;20461;-68
2022/12/24 04:45:22;;;;;;;42.95;6.85;;;;;;;14.39;70.18;100792.50;5011447;28;20030;-67
2022/12/24 04:47:47;;;;;;;44.33;5.80;;;;;;;14.23;71.17;100787.94;5012250;28;20040;-68
2022/12/24 04:50:13;;;;;;;37.55;8.18;;;;;;;14.67;69.47;100789.59;5011174;28;20038;-67
2022/12/24 04:52:38;;;;;;;52.65;6.38;;;;;;;14.43;70.21;100799.03;5011550;28;20177;-68
2022/12/24 04:55:04;;;;;;;41.35;7.28;;;;;;;14.11;70.60;100788.84;5011462;28;20038;-67
2022/12/24 04:57:34;;;;;;;33.03;6.03;;;;;;;14.16;70.87;100790.00;5010240;28;20033;-67
2022/12/24 05:00:00;;;;;;;49.63;7.20;;;;;;;14.05;71.71;100789.84;5010419;28;20069;-67
2022/12/24 05:02:26;;;;;;;54.25;6.55;;;;;;;14.06;71.20;100802.31;5008189;28;20025;-67
2022/12/24 05:04:51;;;;;;;47.20;5.65;;;;;;;14.07;70.86;100805.84;5010557;28;20041;-67
2022/12/24 05:07:16;;;;;;;38.33;6.55;;;;;;;14.23;69.88;100798.75;5010720;28;20398;-68
2022/12/24 05:09:42;;;;;;;26.65;5.00;;;;;;;14.34;70.10;100806.78;5010350;28;20430;-68
2022/12/24 05:12:07;;;;;;;39.50;7.72;;;;;;;14.26;70.12;100799.06;5010616;28;20026;-68
2022/12/24 05:14:32;;;;;;;34.83;8.00;;;;;;;14.02;70.72;100803.88;5017367;28;20022;-67
2022/12/24 05:16:58;;;;;;;44.72;7.35;;;;;;;14.51;68.80;100796.72;5010917;28;20049;-68
2022/12/24 05:19:23;;;;;;;41.45;5.80;;;;;;;14.11;70.32;100810.47;5010618;28;20550;-68
2022/12/24 05:26:20;;;;;;;44.03;5.95;;;;;;;14.61;68.36;100802.25;5010816;28;20502;-67
2022/12/24 05:27:17;;;;;;;42.78;5.25;;;;;;;14.04;70.20;100826.06;5011239;28;20473;-67
2022/12/24 05:29:43;;;;;;;47.28;5.68;;;;;;;14.38;69.99;100824.13;5011198;28;20030;-68
2022/12/24 05:32:08;;;;;;;45.40;9.40;;;;;;;14.43;69.16;100823.34;5010891;28;20398;-69
2022/12/24 05:34:33;;;;;;;56.92;7.07;;;;;;;14.71;68.53;100821.31;5010712;28;20187;-68
2022/12/24 05:36:59;;;;;;;45.38;6.45;;;;;;;14.10;70.14;100825.06;5010948;28;20038;-67
2022/12/24 05:39:24;;;;;;;45.88;5.90;;;;;;;14.39;69.87;100828.47;5010600;28;20040;-68
2022/12/24 05:41:50;;;;;;;46.50;5.70;;;;;;;14.36;69.74;100822.75;4992010;28;20043;-68
2022/12/24 05:44:15;;;;;;;41.15;6.07;;;;;;;14.82;68.70;100836.56;5010826;28;20054;-68
2022/12/24 05:46:41;;;;;;;46.67;8.15;;;;;;;14.42;70.59;100827.97;5010634;28;20042;-68
2022/12/24 05:49:06;;;;;;;56.97;6.95;;;;;;;14.74;68.90;100830.81;5010860;28;20034;-69
2022/12/24 05:51:32;;;;;;;47.42;5.38;;;;;;;14.16;70.94;100836.75;5010483;28;20045;-68
2022/12/24 05:53:57;;;;;;;58.38;6.95;;;;;;;14.59;69.23;100836.84;5010343;28;20038;-69
2022/12/24 05:56:23;;;;;;;51.13;9.45;;;;;;;14.47;69.27;100827.19;5011071;28;20433;-67
2022/12/24 05:58:50;;;;;;;40.50;5.80;;;;;;;14.27;71.00;100827.72;5010620;28;20514;-67
2022/12/24 06:01:16;;;;;;;35.05;5.88;;;;;;;15.02;68.36;100827.06;5010478;28;20129;-68
2022/12/24 06:03:42;;;;;;;42.58;6.82;;;;;;;14.89;69.95;100839.09;5010413;28;20187;-69
2022/12/24 06:06:10;;;;;;;43.22;8.35;;;;;;;14.62;70.12;100830.91;5010655;28;20478;-69
2022/12/24 06:08:36;;;;;;;49.25;7.22;;;;;;;14.40;70.35;100840.94;5010878;28;20552;-68
2022/12/24 06:11:06;;;;;;;50.40;7.40;;;;;;;14.69;70.29;100828.03;5011670;28;20042;-67
2022/12/24 06:13:31;;;;;;;50.38;8.05;;;;;;;14.76;69.14;100834.09;5014456;28;20494;-67
2022/12/24 06:15:58;;;;;;;60.85;6.18;;;;;;;15.39;67.60;100830.69;5014054;28;20038;-68
2022/12/24 06:18:24;;;;;;;52.13;6.38;;;;;;;14.73;69.75;100829.97;5014091;28;20034;-68
2022/12/24 06:20:54;;;;;;;42.38;6.43;;;;;;;14.78;69.95;100835.44;5014549;28;20033;-68
2022/12/24 06:23:20;;;;;;;45.42;7.32;;;;;;;14.95;69.55;100846.19;5014231;28;20030;-67
2022/12/24 06:25:46;;;;;;;45.75;5.50;;;;;;;14.60;70.82;100835.75;5014151;28;20034;-68
2022/12/24 06:28:12;;;;;;;41.25;6.20;;;;;;;14.39;71.36;100841.97;5014164;28;20080;-68
2022/12/24 06:30:37;;;;;;;50.55;6.60;;;;;;;14.63;70.99;100853.38;5014446;28;20303;-67
2022/12/24 06:33:03;;;;;;;51.75;6.72;;;;;;;15.33;68.13;100851.47;5012168;28;20093;-68
2022/12/24 06:35:30;;;;;;;43.92;7.38;;;;;;;14.75;69.33;100852.19;5014451;28;20107;-68
2022/12/24 06:37:56;;;;;;;41.63;6.28;;;;;;;15.24;68.44;100861.13;5013793;28;20061;-68
2022/12/24 06:40:21;;;;;;;49.70;8.43;;;;;;;14.93;69.20;100865.41;5013635;28;20569;-68
2022/12/24 06:42:46;;;;;;;41.58;5.63;;;;;;;15.03;69.81;100872.81;5013923;28;20048;-70
2022/12/24 06:45:12;;;;;;;53.72;9.05;;;;;;;15.04;69.19;100868.19;5013995;28;20034;-68
2022/12/24 06:47:37;;;;;;;65.43;8.88;;;;;;;14.59;71.49;100871.16;5014248;28;20056;-69
2022/12/24 06:50:03;;;;;;;53.30;8.93;;;;;;;14.70;70.83;100878.38;5013485;28;20099;-69
2022/12/24 06:52:28;;;;;;;38.47;7.35;;;;;;;15.00;70.72;100880.63;5013929;28;20379;-68
2022/12/24 06:54:54;;;;;;;45.38;7.88;;;;;;;15.07;69.81;100887.47;5013699;28;20054;-67
2022/12/24 06:57:19;;;;;;;43.75;6.50;;;;;;;15.25;69.38;100883.63;5013968;28;20038;-68
2022/12/24 06:59:44;;;;;;;50.85;6.85;;;;;;;15.09;70.18;100885.34;5014230;28;20125;-68
2022/12/24 07:02:10;;;;;;;43.70;7.03;;;;;;;15.43;68.95;100886.00;5009152;28;20125;-69
2022/12/24 07:04:35;;;;;;;40.80;6.50;;;;;;;14.95;70.25;100897.63;5001107;28;20121;-70
2022/12/24 07:07:00;;;;;;;47.58;7.25;;;;;;;14.55;72.22;100892.50;5009245;28;20402;-68
2022/12/24 07:09:26;;;;;;;40.05;6.88;;;;;;;14.80;71.88;100890.13;5007151;28;20061;-67
2022/12/24 07:11:51;;;;;;;49.88;6.80;;;;;;;14.62;72.11;100903.13;5010912;28;20037;-69
2022/12/24 07:14:17;;;;;;;39.28;6.75;;;;;;;14.16;74.25;100900.78;5015441;28;20041;-68
2022/12/24 07:16:42;;;;;;;37.85;6.38;;;;;;;14.27;73.73;100900.69;5011598;28;20431;-68
2022/12/24 07:19:07;;;;;;;34.28;6.40;;;;;;;14.64;72.83;100915.31;5006598;28;20281;-69
2022/12/24 07:21:33;;;;;;;53.53;7.78;;;;;;;14.79;71.95;100898.50;5006069;28;20099;-69
2022/12/24 07:23:58;;;;;;;43.33;7.60;;;;;;;14.63;72.86;100911.00;5012267;28;20092;-68
2022/12/24 07:26:23;;;;;;;50.58;8.23;;;;;;;14.85;71.97;100913.72;5013204;28;20026;-70
2022/12/24 07:28:49;;;;;;;41.03;6.72;;;;;;;14.62;72.77;100913.97;5012752;28;20133;-68
2022/12/24 07:31:14;;;;;;;37.97;6.93;;;;;;;14.92;72.53;100906.22;5013065;28;20123;-69
2022/12/24 07:33:40;;;;;;;47.22;8.50;;;;;;;14.93;72.12;100918.69;5009681;28;20034;-69
2022/12/24 07:36:09;;;;;;;55.28;7.63;;;;;;;14.65;72.15;100925.09;5011578;28;20041;-67
2022/12/24 07:38:36;;;;;;;39.58;6.80;;;;;;;14.83;72.29;100929.38;5012718;28;20486;-69
2022/12/24 07:41:01;;;;;;;37.60;7.65;;;;;;;14.74;73.11;100936.31;5010808;28;20042;-68
2022/12/24 07:43:27;;;;;;;49.60;8.15;;;;;;;15.18;71.24;100943.34;4995303;28;20502;-69
2022/12/24 07:45:56;;;;;;;54.33;8.38;;;;;;;14.70;73.27;100956.81;5013038;28;20038;-72
2022/12/24 07:48:23;;;;;;;46.58;8.45;;;;;;;14.75;72.63;100937.94;5011644;28;20030;-70
2022/12/24 07:50:49;;;;;;;36.15;6.68;;;;;;;15.03;72.11;100942.34;5012365;28;20284;-69
2022/12/24 07:53:15;;;;;;;30.27;5.00;;;;;;;14.70;72.89;100954.91;5012553;28;20394;-69
2022/12/24 07:55:40;;;;;;;37.08;5.53;;;;;;;14.44;74.19;100958.31;5010783;28;20117;-68
2022/12/24 07:58:05;;;;;;;42.95;8.27;;;;;;;14.64;73.61;100955.91;5012349;28;20506;-69
2022/12/24 08:00:31;;;;;;;43.83;6.78;;;;;;;14.31;74.51;100963.25;4998148;28;20092;-69
2022/12/24 08:02:58;;;;;;;41.33;7.18;;;;;;;14.92;71.87;100960.34;5003306;28;20041;-68
2022/12/24 08:05:25;;;;;;;35.63;5.78;;;;;;;14.89;73.54;100967.09;5011760;28;20042;-69
2022/12/24 08:07:50;;;;;;;63.85;8.18;;;;;;;14.87;72.71;100969.22;5011440;28;20096;-68
2022/12/24 08:10:16;;;;;;;58.65;11.48;;;;;;;15.17;71.89;100974.22;5011968;28;20041;-69
2022/12/24 08:12:41;;;;;;;40.40;7.13;;;;;;;14.78;72.98;100997.75;5011494;28;20034;-69
2022/12/24 08:15:07;;;;;;;49.63;7.03;;;;;;;14.58;74.15;100986.66;5011070;28;20197;-70
2022/12/24 08:17:32;;;;;;;48.45;6.97;;;;;;;14.74;73.26;100999.31;5012837;28;20040;-68
2022/12/24 08:19:58;;;;;;;50.45;7.15;;;;;;;14.84;72.97;100995.94;5012250;28;20038;-69
2022/12/24 08:22:24;;;;;;;45.30;7.80;;;;;;;14.83;73.55;101010.56;5011927;28;20092;-68
2022/12/24 08:24:49;;;;;;;60.67;10.32;;;;;;;15.16;71.88;101017.75;5010244;28;20033;-69
2022/12/24 08:27:15;;;;;;;70.82;11.00;;;;;;;15.06;72.11;101014.91;5012046;28;20060;-69
2022/12/24 08:29:40;;;;;;;52.72;8.45;;;;;;;14.89;73.04;101026.63;5012121;28;20121;-70
2022/12/24 08:32:05;;;;;;;46.55;8.98;;;;;;;14.73;73.08;101032.03;5011647;28;20394;-70
2022/12/24 08:34:31;;;;;;;67.75;8.20;;;;;;;15.07;72.06;101036.34;5010704;28;20049;-69
2022/12/24 08:36:56;;;;;;;54.33;6.60;;;;;;;14.98;72.38;101045.16;5011804;28;20053;-69
2022/12/24 08:39:22;;;;;;;40.45;6.63;;;;;;;14.74;73.40;101039.91;5011975;28;20351;-69
2022/12/24 08:41:47;;;;;;;36.83;8.32;;;;;;;14.69;73.19;101034.44;5012127;28;20083;-69
2022/12/24 08:44:12;;;;;;;53.97;7.68;;;;;;;14.73;73.32;101035.56;5011796;28;20037;-67
2022/12/24 08:46:38;;;;;;;53.83;8.32;;;;;;;14.68;72.93;101030.06;5011754;28;20514;-68
2022/12/24 08:49:03;;;;;;;50.97;9.52;;;;;;;14.83;72.05;101038.44;5011830;28;20464;-68
2022/12/24 08:51:29;;;;;;;54.05;8.30;;;;;;;15.01;71.99;101045.47;5011487;28;20120;-68
2022/12/24 08:53:54;;;;;;;55.10;8.23;;;;;;;14.86;72.82;101056.03;4994341;28;20123;-68
2022/12/24 08:56:19;;;;;;;49.67;6.45;;;;;;;14.84;72.47;101055.47;5011585;28;20401;-68
2022/12/24 08:58:45;;;;;;;57.50;8.45;;;;;;;15.00;72.22;101054.63;5011592;28;20114;-69
2022/12/24 09:01:13;;;;;;;46.60;6.57;;;;;;;14.70;72.92;101054.19;5011525;28;20125;-71
2022/12/24 09:03:39;;;;;;;45.97;7.00;;;;;;;14.26;75.31;101050.44;4997010;28;20048;-68
2022/12/24 09:06:05;;;;;;;53.70;7.28;;;;;;;15.18;72.41;101058.94;4991949;28;20035;-68
2022/12/24 09:08:32;;;;;;;59.47;9.15;;;;;;;15.38;71.96;101059.22;4992436;28;20387;-69
2022/12/24 09:11:05;;;;;;;60.85;7.95;;;;;;;14.59;73.90;101065.91;4991926;28;20034;-69
2022/12/24 09:13:31;;;;;;;55.90;7.85;;;;;;;15.28;72.20;101068.03;4991749;28;20473;-68
2022/12/24 09:15:56;;;;;;;52.20;7.55;;;;;;;14.93;72.21;101067.53;5007586;28;20038;-68
2022/12/24 09:18:22;;;;;;;57.58;8.55;;;;;;;14.48;74.34;101061.41;5010984;28;21191;-69
2022/12/24 09:20:48;;;;;;;55.97;8.65;;;;;;;14.75;73.39;101078.59;5008438;28;20081;-68
2022/12/24 09:23:13;;;;;;;49.33;8.68;;;;;;;14.71;73.56;101074.75;4992710;28;20553;-69
2022/12/24 09:25:42;;;;;;;49.03;8.05;;;;;;;14.77;73.04;101084.59;5008576;28;20041;-69
2022/12/24 09:28:08;;;;;;;58.63;9.98;;;;;;;14.78;73.70;101087.03;5009979;28;20265;-70
2022/12/24 09:30:35;;;;;;;59.92;9.05;;;;;;;15.13;72.39;101099.47;5008595;28;20734;-69
2022/12/24 09:33:01;;;;;;;59.08;10.52;;;;;;;15.14;72.10;101109.22;5008222;28;20018;-70
2022/12/24 09:35:26;;;;;;;67.13;10.63;;;;;;;15.28;72.16;101107.81;5010240;28;20445;-70
2022/12/24 09:38:01;;;;;;;72.18;9.68;;;;;;;14.94;72.69;101105.16;5010016;28;20034;-69
2022/12/24 09:40:38;;;;;;;56.35;8.00;;;;;;;15.08;73.00;101118.34;5008625;28;20046;-68
2022/12/24 09:43:26;;;;;;;70.40;10.45;;;;;;;14.84;72.89;101104.16;4993288;28;20130;-69
2022/12/24 09:46:13;;;;;;;43.65;8.10;;;;;;;14.44;74.62;101112.44;5011286;28;20042;-68
2022/12/24 09:48:46;;;;;;;54.70;8.32;;;;;;;14.22;75.03;101118.75;5010790;28;20038;-69
2022/12/24 09:51:38;;;;;;;46.47;5.93;;;;;;;14.17;75.42;101121.38;5010796;28;20041;-69
2022/12/24 09:54:24;;;;;;;58.78;9.35;;;;;;;14.65;73.71;101127.94;5010369;28;20057;-67
2022/12/24 09:56:50;;;;;;;68.35;10.57;;;;;;;14.95;73.04;101135.75;4993841;28;20057;-69
2022/12/24 09:59:22;;;;;;;63.83;9.57;;;;;;;14.98;72.37;101136.06;5011181;28;20517;-69
2022/12/24 10:01:50;;;;;;;60.83;9.77;;;;;;;14.66;73.34;101155.84;5010952;28;20068;-69
2022/12/24 10:04:19;;;;;;;57.42;9.00;;;;;;;15.02;71.27;101136.38;5010915;28;20573;-71
2022/12/24 10:07:08;;;;;;;51.05;10.75;;;;;;;14.69;72.65;101144.50;5010692;28;20117;-68
2022/12/24 10:09:47;;;;;;;59.78;9.80;;;;;;;14.90;72.36;101147.31;5010590;28;20057;-69
2022/12/24 10:12:52;;;;;;;45.83;7.80;;;;;;;15.34;71.72;101153.69;5010810;28;20478;-70
2022/12/24 10:15:28;;;;;;;53.67;8.80;;;;;;;14.85;72.76;101151.81;4930723;29;20443;-70
2022/12/24 10:18:11;;;;;;;51.40;8.40;;;;;;;14.98;71.48;101163.13;4931121;29;20035;-68
2022/12/24 10:20:58;;;;;;;67.80;8.82;;;;;;;14.68;71.74;101164.53;4930822;29;20031;-68
2022/12/24 10:23:23;;;;;;;43.15;6.15;;;;;;;14.98;70.56;101158.81;4930748;29;20078;-69
2022/12/24 10:26:14;;;;;;;62.63;10.38;;;;;;;14.73;72.58;101167.31;4931008;29;20067;-70
2022/12/24 10:29:02;;;;;;;56.25;7.60;;;;;;;15.39;69.81;101171.91;4930558;29;20043;-69
2022/12/24 10:31:34;;;;;;;60.13;8.10;;;;;;;15.44;69.42;101161.16;4930635;29;20055;-70
2022/12/24 10:34:21;;;;;;;39.40;7.22;;;;;;;15.40;70.25;101166.22;4930734;29;20126;-69
2022/12/24 10:36:46;;;;;;;47.00;8.75;;;;;;;15.01;70.46;101159.13;4930531;29;20126;-69
2022/12/24 10:39:24;;;;;;;48.03;6.90;;;;;;;15.01;71.31;101161.00;4930496;29;20047;-69
2022/12/24 10:41:52;;;;;;;55.33;7.25;;;;;;;15.37;69.83;101158.59;4931150;29;20612;-70
2022/12/24 10:44:21;;;;;;;52.17;6.82;;;;;;;15.32;69.42;101160.41;4930457;29;20036;-68
2022/12/24 10:46:46;;;;;;;42.25;7.38;;;;;;;15.52;69.29;101166.16;4930565;29;20550;-69
2022/12/24 10:49:16;;;;;;;49.55;8.43;;;;;;;15.20;70.09;101151.56;4930439;29;20051;-69
2022/12/24 10:52:05;;;;;;;50.00;7.07;;;;;;;15.51;68.95;101167.22;4974639;28;20061;-68
2022/12/24 10:54:37;;;;;;;46.90;9.65;;;;;;;15.30;69.68;101163.38;5010432;28;20042;-68
2022/12/24 10:57:04;;;;;;;52.35;7.85;;;;;;;15.68;67.54;101162.59;5010370;28;20030;-69
2022/12/24 10:59:32;;;;;;;48.40;10.70;;;;;;;15.62;68.48;101167.13;5013697;28;20477;-70
2022/12/24 11:01:59;;;;;;;37.13;6.35;;;;;;;15.73;67.44;101155.34;5013852;28;20410;-69
2022/12/24 11:04:28;;;;;;;37.95;6.70;;;;;;;15.98;66.75;101167.59;5013896;28;20045;-69
2022/12/24 11:06:59;;;;;;;43.65;7.25;;;;;;;15.12;69.16;101168.22;5014010;28;20537;-70
2022/12/24 11:09:31;;;;;;;53.50;6.20;;;;;;;15.14;69.03;101171.50;5013684;28;20033;-68
2022/12/24 11:11:58;;;;;;;34.90;6.65;;;;;;;15.43;67.61;101189.31;5013852;28;20049;-71
2022/12/24 11:14:25;;;;;;;30.58;7.18;;;;;;;15.30;68.36;101182.31;5014036;28;20026;-68
2022/12/24 11:16:55;;;;;;;53.42;6.22;;;;;;;16.04;67.02;101180.91;5013421;28;20074;-68
2022/12/24 11:19:35;;;;;;;54.35;5.65;;;;;;;16.17;66.44;101174.31;5013829;28;20117;-69
2022/12/24 11:22:04;;;;;;;38.45;7.18;;;;;;;15.84;66.68;101178.78;5014008;28;20033;-68
2022/12/24 11:24:34;;;;;;;45.45;6.78;;;;;;;15.43;68.82;101186.63;5013416;28;20045;-69
2022/12/24 11:27:32;;;;;;;47.05;6.32;;;;;;;15.86;66.84;101194.81;5013654;28;20038;-70
2022/12/24 11:30:16;;;;;;;46.97;6.22;;;;;;;16.73;64.56;101195.53;5013359;28;20114;-70
2022/12/24 11:32:49;;;;;;;52.45;7.65;;;;;;;15.97;66.60;101198.44;5013823;28;20037;-69